sensor_id;sensor_type;location;lat;lon;timestamp;pressure;altitude;pressure_sealevel;temperature;humidity
73594;BME280;64760;53.404;23.498;2023-03-01T00:01:16;100597.94;;;0.82;75.08
73594;BME280;64760;53.404;23.498;2023-03-01T00:03:43;100599.47;;;0.85;75.37
73594;BME280;64760;53.404;23.498;2023-03-01T00:06:09;100594.72;;;0.90;75.15
73594;BME280;64760;53.404;23.498;2023-03-01T00:08:35;100585.94;;;0.89;75.28
73594;BME280;64760;53.404;23.498;2023-03-01T00:13:28;100567.72;;;0.86;76.19
73594;BME280;64760;53.404;23.498;2023-03-01T00:15:54;100563.34;;;0.74;76.58
73594;BME280;64760;53.404;23.498;2023-03-01T00:18:20;100563.66;;;0.93;76.25
73594;BME280;64760;53.404;23.498;2023-03-01T00:20:52;100573.88;;;0.98;76.42
73594;BME280;64760;53.404;23.498;2023-03-01T00:23:19;100553.47;;;1.00;76.30
73594;BME280;64760;53.404;23.498;2023-03-01T00:25:46;100553.47;;;1.00;76.64
73594;BME280;64760;53.404;23.498;2023-03-01T00:28:12;100540.84;;;0.92;77.00
73594;BME280;64760;53.404;23.498;2023-03-01T00:30:39;100547.03;;;0.80;77.63
73594;BME280;64760;53.404;23.498;2023-03-01T00:33:05;100541.47;;;0.96;77.76
73594;BME280;64760;53.404;23.498;2023-03-01T00:35:34;100550.13;;;1.09;77.72
73594;BME280;64760;53.404;23.498;2023-03-01T00:38:01;100540.78;;;1.05;77.58
73594;BME280;64760;53.404;23.498;2023-03-01T00:40:29;100549.28;;;0.98;78.10
73594;BME280;64760;53.404;23.498;2023-03-01T00:42:56;100527.78;;;0.91;78.60
73594;BME280;64760;53.404;23.498;2023-03-01T00:45:22;100536.88;;;0.87;78.45
73594;BME280;64760;53.404;23.498;2023-03-01T00:47:50;100545.59;;;0.76;78.74
73594;BME280;64760;53.404;23.498;2023-03-01T00:50:18;100536.88;;;0.87;79.05
73594;BME280;64760;53.404;23.498;2023-03-01T00:52:44;100529.31;;;0.82;78.68
73594;BME280;64760;53.404;23.498;2023-03-01T00:55:11;100537.63;;;1.00;78.39
73594;BME280;64760;53.404;23.498;2023-03-01T00:57:37;100530.09;;;0.96;78.33
73594;BME280;64760;53.404;23.498;2023-03-01T01:00:06;100535.38;;;0.96;78.48
73594;BME280;64760;53.404;23.498;2023-03-01T01:02:33;100522.28;;;0.94;78.60
73594;BME280;64760;53.404;23.498;2023-03-01T01:05:00;100506.94;;;0.99;78.11
73594;BME280;64760;53.404;23.498;2023-03-01T01:07:26;100503.31;;;1.00;77.90
73594;BME280;64760;53.404;23.498;2023-03-01T01:09:52;100507.97;;;0.85;78.33
73594;BME280;64760;53.404;23.498;2023-03-01T01:12:19;100518.88;;;0.92;78.32
73594;BME280;64760;53.404;23.498;2023-03-01T01:14:46;100511.81;;;0.92;78.28
73594;BME280;64760;53.404;23.498;2023-03-01T01:17:12;100514.13;;;0.97;78.31
73594;BME280;64760;53.404;23.498;2023-03-01T01:19:40;100509.84;;;1.07;78.33
73594;BME280;64760;53.404;23.498;2023-03-01T01:22:06;100516.41;;;1.02;78.51
73594;BME280;64760;53.404;23.498;2023-03-01T01:24:33;100514.38;;;1.05;78.39
73594;BME280;64760;53.404;23.498;2023-03-01T01:26:59;100513.41;;;0.95;78.33
73594;BME280;64760;53.404;23.498;2023-03-01T01:29:25;100502.25;;;0.91;78.31
73594;BME280;64760;53.404;23.498;2023-03-01T01:31:52;100505.00;;;1.01;78.46
73594;BME280;64760;53.404;23.498;2023-03-01T01:34:21;100512.94;;;1.12;77.87
73594;BME280;64760;53.404;23.498;2023-03-01T01:36:48;100502.97;;;1.16;78.00
73594;BME280;64760;53.404;23.498;2023-03-01T01:39:16;100504.19;;;1.12;78.33
73594;BME280;64760;53.404;23.498;2023-03-01T01:41:42;100517.03;;;1.16;78.02
73594;BME280;64760;53.404;23.498;2023-03-01T01:44:18;100485.59;;;1.13;78.07
73594;BME280;64760;53.404;23.498;2023-03-01T01:49:22;100477.78;;;1.12;78.54
73594;BME280;64760;53.404;23.498;2023-03-01T01:51:52;100479.59;;;1.11;78.51
73594;BME280;64760;53.404;23.498;2023-03-01T01:54:30;100483.06;;;1.12;78.89
73594;BME280;64760;53.404;23.498;2023-03-01T01:57:02;100485.34;;;1.16;78.54
73594;BME280;64760;53.404;23.498;2023-03-01T01:59:30;100468.66;;;1.16;78.70
73594;BME280;64760;53.404;23.498;2023-03-01T02:01:59;100467.34;;;1.10;79.53
73594;BME280;64760;53.404;23.498;2023-03-01T02:04:29;100476.81;;;1.13;79.45
73594;BME280;64760;53.404;23.498;2023-03-01T02:09:50;100481.91;;;1.27;79.07
73594;BME280;64760;53.404;23.498;2023-03-01T02:12:20;100471.34;;;1.27;79.30
73594;BME280;64760;53.404;23.498;2023-03-01T02:14:48;100486.78;;;1.20;79.36
73594;BME280;64760;53.404;23.498;2023-03-01T02:17:16;100480.91;;;1.17;79.49
73594;BME280;64760;53.404;23.498;2023-03-01T02:22:28;100461.94;;;1.12;79.71
73594;BME280;64760;53.404;23.498;2023-03-01T02:27:59;100455.34;;;1.17;79.89
73594;BME280;64760;53.404;23.498;2023-03-01T02:30:28;100433.50;;;1.04;80.02
73594;BME280;64760;53.404;23.498;2023-03-01T02:32:56;100445.97;;;0.91;80.47
73594;BME280;64760;53.404;23.498;2023-03-01T02:38:17;100436.44;;;0.55;82.46
73594;BME280;64760;53.404;23.498;2023-03-01T02:40:44;100429.69;;;0.51;82.56
73594;BME280;64760;53.404;23.498;2023-03-01T02:43:12;100432.44;;;0.50;82.57
73594;BME280;64760;53.404;23.498;2023-03-01T02:45:47;100430.66;;;0.50;82.52
73594;BME280;64760;53.404;23.498;2023-03-01T02:48:13;100441.19;;;0.50;82.85
73594;BME280;64760;53.404;23.498;2023-03-01T02:51:10;100433.59;;;0.34;83.95
73594;BME280;64760;53.404;23.498;2023-03-01T02:53:49;100435.56;;;0.43;83.46
73594;BME280;64760;53.404;23.498;2023-03-01T02:56:19;100427.75;;;0.42;83.77
73594;BME280;64760;53.404;23.498;2023-03-01T02:58:45;100437.34;;;0.43;83.42
73594;BME280;64760;53.404;23.498;2023-03-01T03:01:14;100428.09;;;0.37;83.43
73594;BME280;64760;53.404;23.498;2023-03-01T03:03:42;100434.44;;;0.35;84.50
73594;BME280;64760;53.404;23.498;2023-03-01T03:06:08;100434.56;;;0.44;84.31
73594;BME280;64760;53.404;23.498;2023-03-01T03:08:35;100424.19;;;0.19;84.21
73594;BME280;64760;53.404;23.498;2023-03-01T03:11:02;100436.22;;;0.34;84.70
73594;BME280;64760;53.404;23.498;2023-03-01T03:13:28;100420.75;;;0.30;84.51
73594;BME280;64760;53.404;23.498;2023-03-01T03:15:55;100430.09;;;0.23;84.37
73594;BME280;64760;53.404;23.498;2023-03-01T03:18:22;100430.75;;;0.14;85.29
73594;BME280;64760;53.404;23.498;2023-03-01T03:20:52;100413.81;;;0.05;85.65
73594;BME280;64760;53.404;23.498;2023-03-01T03:23:20;100434.50;;;0.22;85.42
73594;BME280;64760;53.404;23.498;2023-03-01T03:25:50;100438.22;;;0.20;85.79
73594;BME280;64760;53.404;23.498;2023-03-01T03:28:16;100437.19;;;0.10;85.76
73594;BME280;64760;53.404;23.498;2023-03-01T03:30:43;100436.53;;;-0.05;85.75
73594;BME280;64760;53.404;23.498;2023-03-01T03:33:12;100436.78;;;-0.08;86.79
73594;BME280;64760;53.404;23.498;2023-03-01T03:35:41;100445.56;;;-0.20;87.13
73594;BME280;64760;53.404;23.498;2023-03-01T03:38:10;100433.38;;;-0.10;87.01
73594;BME280;64760;53.404;23.498;2023-03-01T03:40:44;100439.88;;;-0.03;86.96
73594;BME280;64760;53.404;23.498;2023-03-01T03:43:13;100439.69;;;0.00;86.93
73594;BME280;64760;53.404;23.498;2023-03-01T03:45:40;100430.44;;;-0.06;87.24
73594;BME280;64760;53.404;23.498;2023-03-01T03:48:07;100423.22;;;-0.04;86.96
73594;BME280;64760;53.404;23.498;2023-03-01T03:50:37;100424.81;;;-0.01;86.76
73594;BME280;64760;53.404;23.498;2023-03-01T03:53:06;100435.84;;;0.04;86.66
73594;BME280;64760;53.404;23.498;2023-03-01T03:55:33;100435.50;;;0.09;86.92
73594;BME280;64760;53.404;23.498;2023-03-01T03:58:01;100424.81;;;-0.01;86.57
73594;BME280;64760;53.404;23.498;2023-03-01T04:00:41;100429.63;;;0.05;86.58
73594;BME280;64760;53.404;23.498;2023-03-01T04:03:08;100428.91;;;0.03;86.50
73594;BME280;64760;53.404;23.498;2023-03-01T04:05:35;100434.78;;;0.07;87.00
73594;BME280;64760;53.404;23.498;2023-03-01T04:08:02;100417.22;;;0.18;86.80
73594;BME280;64760;53.404;23.498;2023-03-01T04:10:30;100433.47;;;0.36;86.40
73594;BME280;64760;53.404;23.498;2023-03-01T04:12:56;100432.78;;;0.45;85.32
73594;BME280;64760;53.404;23.498;2023-03-01T04:15:24;100427.13;;;0.38;85.24
73594;BME280;64760;53.404;23.498;2023-03-01T04:17:52;100424.75;;;0.35;85.97
73594;BME280;64760;53.404;23.498;2023-03-01T04:20:22;100425.22;;;0.40;85.97
73594;BME280;64760;53.404;23.498;2023-03-01T04:25:19;100425.94;;;0.42;85.90
73594;BME280;64760;53.404;23.498;2023-03-01T04:27:45;100429.56;;;0.53;85.32
73594;BME280;64760;53.404;23.498;2023-03-01T04:30:11;100434.25;;;0.60;84.83
73594;BME280;64760;53.404;23.498;2023-03-01T04:32:37;100421.94;;;0.72;84.90
73594;BME280;64760;53.404;23.498;2023-03-01T04:35:05;100425.31;;;0.74;84.17
73594;BME280;64760;53.404;23.498;2023-03-01T04:37:32;100425.56;;;0.71;84.41
73594;BME280;64760;53.404;23.498;2023-03-01T04:39:58;100426.75;;;0.78;84.73
73594;BME280;64760;53.404;23.498;2023-03-01T04:42:24;100423.28;;;0.77;84.27
73594;BME280;64760;53.404;23.498;2023-03-01T04:44:51;100439.38;;;0.85;84.10
73594;BME280;64760;53.404;23.498;2023-03-01T04:47:17;100433.84;;;0.88;84.17
73594;BME280;64760;53.404;23.498;2023-03-01T04:49:43;100434.69;;;0.89;84.20
73594;BME280;64760;53.404;23.498;2023-03-01T04:52:09;100438.28;;;0.88;84.34
73594;BME280;64760;53.404;23.498;2023-03-01T04:54:36;100453.66;;;0.94;83.98
73594;BME280;64760;53.404;23.498;2023-03-01T04:57:04;100445.50;;;0.97;84.38
73594;BME280;64760;53.404;23.498;2023-03-01T04:59:30;100441.28;;;0.83;84.63
73594;BME280;64760;53.404;23.498;2023-03-01T05:01:57;100438.78;;;0.93;84.61
73594;BME280;64760;53.404;23.498;2023-03-01T05:04:23;100452.44;;;0.87;84.81
73594;BME280;64760;53.404;23.498;2023-03-01T05:06:50;100453.66;;;0.94;84.28
73594;BME280;64760;53.404;23.498;2023-03-01T05:09:16;100459.63;;;0.96;84.26
73594;BME280;64760;53.404;23.498;2023-03-01T05:11:43;100457.84;;;0.97;84.25
73594;BME280;64760;53.404;23.498;2023-03-01T05:14:10;100462.53;;;0.93;84.74
73594;BME280;64760;53.404;23.498;2023-03-01T05:16:37;100457.25;;;0.93;84.60
73594;BME280;64760;53.404;23.498;2023-03-01T05:19:03;100471.88;;;0.97;84.95
73594;BME280;64760;53.404;23.498;2023-03-01T05:21:42;100463.50;;;1.03;84.46
73594;BME280;64760;53.404;23.498;2023-03-01T05:24:28;100468.16;;;1.00;84.25
73594;BME280;64760;53.404;23.498;2023-03-01T05:26:55;100476.81;;;1.13;84.77
73594;BME280;64760;53.404;23.498;2023-03-01T05:29:22;100478.13;;;0.96;85.05
73594;BME280;64760;53.404;23.498;2023-03-01T05:31:52;100485.00;;;1.10;84.95
73594;BME280;64760;53.404;23.498;2023-03-01T05:34:23;100487.03;;;1.17;84.71
73594;BME280;64760;53.404;23.498;2023-03-01T05:36:49;100476.81;;;1.02;84.58
73594;BME280;64760;53.404;23.498;2023-03-01T05:39:23;100491.34;;;1.07;85.16
73594;BME280;64760;53.404;23.498;2023-03-01T05:41:55;100488.47;;;1.10;84.75
73594;BME280;64760;53.404;23.498;2023-03-01T05:44:22;100496.28;;;1.23;84.43
73594;BME280;64760;53.404;23.498;2023-03-01T05:46:49;100491.38;;;1.29;84.08
73594;BME280;64760;53.404;23.498;2023-03-01T05:49:15;100495.69;;;1.19;84.66
73594;BME280;64760;53.404;23.498;2023-03-01T05:51:43;100493.88;;;1.20;84.37
73594;BME280;64760;53.404;23.498;2023-03-01T05:54:10;100495.56;;;1.32;84.12
73594;BME280;64760;53.404;23.498;2023-03-01T05:56:37;100490.66;;;1.27;84.13
73594;BME280;64760;53.404;23.498;2023-03-01T05:59:04;100496.16;;;1.35;84.05
73594;BME280;64760;53.404;23.498;2023-03-01T06:01:34;100498.81;;;1.35;83.66
73594;BME280;64760;53.404;23.498;2023-03-01T06:04:01;100498.09;;;1.33;83.75
73594;BME280;64760;53.404;23.498;2023-03-01T06:06:29;100495.81;;;1.40;83.39
73594;BME280;64760;53.404;23.498;2023-03-01T06:08:59;100496.41;;;1.32;84.06
73594;BME280;64760;53.404;23.498;2023-03-01T06:11:26;100501.81;;;1.42;83.80
73594;BME280;64760;53.404;23.498;2023-03-01T06:13:52;100500.03;;;1.42;84.16
73594;BME280;64760;53.404;23.498;2023-03-01T06:16:19;100504.56;;;1.40;84.22
73594;BME280;64760;53.404;23.498;2023-03-01T06:18:45;100500.88;;;1.54;84.05
73594;BME280;64760;53.404;23.498;2023-03-01T06:21:11;100508.69;;;1.67;83.53
73594;BME280;64760;53.404;23.498;2023-03-01T06:23:37;100508.91;;;1.64;83.46
73594;BME280;64760;53.404;23.498;2023-03-01T06:26:08;100502.41;;;1.79;82.76
73594;BME280;64760;53.404;23.498;2023-03-01T06:28:35;100508.44;;;1.70;82.51
73594;BME280;64760;53.404;23.498;2023-03-01T06:31:02;100511.06;;;1.70;83.23
73594;BME280;64760;53.404;23.498;2023-03-01T06:33:28;100509.63;;;1.77;82.95
73594;BME280;64760;53.404;23.498;2023-03-01T06:35:55;100517.19;;;1.81;82.59
73594;BME280;64760;53.404;23.498;2023-03-01T06:38:23;100523.56;;;1.79;82.85
73594;BME280;64760;53.404;23.498;2023-03-01T06:40:54;100516.22;;;1.82;82.63
73594;BME280;64760;53.404;23.498;2023-03-01T06:43:23;100522.59;;;1.80;82.67
73594;BME280;64760;53.404;23.498;2023-03-01T06:45:49;100525.13;;;1.81;82.73
73594;BME280;64760;53.404;23.498;2023-03-01T06:48:16;100522.59;;;1.91;82.26
73594;BME280;64760;53.404;23.498;2023-03-01T06:50:42;100528.25;;;1.86;82.52
73594;BME280;64760;53.404;23.498;2023-03-01T06:53:08;100539.66;;;1.87;82.66
73594;BME280;64760;53.404;23.498;2023-03-01T06:55:35;100545.66;;;1.89;82.58
73594;BME280;64760;53.404;23.498;2023-03-01T06:58:02;100543.59;;;1.93;82.66
73594;BME280;64760;53.404;23.498;2023-03-01T07:00:34;100552.13;;;1.96;82.53
73594;BME280;64760;53.404;23.498;2023-03-01T07:03:01;100558.38;;;2.06;82.71
73594;BME280;64760;53.404;23.498;2023-03-01T07:05:29;100553.31;;;2.14;81.69
73594;BME280;64760;53.404;23.498;2023-03-01T07:07:55;100553.53;;;2.22;81.60
73594;BME280;64760;53.404;23.498;2023-03-01T07:10:22;100564.34;;;2.30;81.27
73594;BME280;64760;53.404;23.498;2023-03-01T07:12:48;100564.22;;;2.32;81.54
73594;BME280;64760;53.404;23.498;2023-03-01T07:15:15;100564.78;;;2.47;80.66
73594;BME280;64760;53.404;23.498;2023-03-01T07:17:41;100569.09;;;2.48;80.22
73594;BME280;64760;53.404;23.498;2023-03-01T07:20:11;100565.50;;;2.49;80.53
73594;BME280;64760;53.404;23.498;2023-03-01T07:22:39;100567.81;;;2.42;80.70
73594;BME280;64760;53.404;23.498;2023-03-01T07:25:06;100567.59;;;2.34;80.92
73594;BME280;64760;53.404;23.498;2023-03-01T07:27:33;100570.78;;;2.49;80.26
73594;BME280;64760;53.404;23.498;2023-03-01T07:30:00;100567.44;;;2.47;80.56
73594;BME280;64760;53.404;23.498;2023-03-01T07:32:27;100574.66;;;2.45;81.23
73594;BME280;64760;53.404;23.498;2023-03-01T07:34:53;100570.06;;;2.58;80.83
73594;BME280;64760;53.404;23.498;2023-03-01T07:37:19;100568.88;;;2.40;81.38
73594;BME280;64760;53.404;23.498;2023-03-01T07:39:45;100564.88;;;2.56;80.61
73594;BME280;64760;53.404;23.498;2023-03-01T07:42:13;100567.84;;;2.74;80.12
73594;BME280;64760;53.404;23.498;2023-03-01T07:44:39;100578.19;;;2.66;80.09
73594;BME280;64760;53.404;23.498;2023-03-01T07:47:05;100575.59;;;2.55;80.12
73594;BME280;64760;53.404;23.498;2023-03-01T07:49:31;100563.22;;;2.76;80.37
73594;BME280;64760;53.404;23.498;2023-03-01T07:51:58;100569.47;;;2.86;79.48
73594;BME280;64760;53.404;23.498;2023-03-01T07:54:25;100572.16;;;2.96;79.29
73594;BME280;64760;53.404;23.498;2023-03-01T07:56:52;100567.81;;;3.06;79.25
73594;BME280;64760;53.404;23.498;2023-03-01T07:59:19;100565.94;;;3.17;79.32
73594;BME280;64760;53.404;23.498;2023-03-01T08:01:45;100568.72;;;3.37;77.86
73594;BME280;64760;53.404;23.498;2023-03-01T08:04:12;100557.66;;;3.31;77.82
73594;BME280;64760;53.404;23.498;2023-03-01T08:06:40;100558.19;;;3.25;78.28
73594;BME280;64760;53.404;23.498;2023-03-01T08:09:06;100546.13;;;2.80;78.84
73594;BME280;64760;53.404;23.498;2023-03-01T08:11:33;100553.25;;;3.00;79.48
73594;BME280;64760;53.404;23.498;2023-03-01T08:13:59;100556.22;;;3.27;79.02
73594;BME280;64760;53.404;23.498;2023-03-01T08:16:26;100550.16;;;3.37;78.16
73594;BME280;64760;53.404;23.498;2023-03-01T08:18:52;100544.38;;;3.52;77.87
73594;BME280;64760;53.404;23.498;2023-03-01T08:21:19;100549.63;;;3.43;77.92
73594;BME280;64760;53.404;23.498;2023-03-01T08:23:46;100551.47;;;3.72;77.90
73594;BME280;64760;53.404;23.498;2023-03-01T08:26:20;100541.97;;;3.70;78.01
73594;BME280;64760;53.404;23.498;2023-03-01T08:28:48;100529.84;;;3.77;76.97
73594;BME280;64760;53.404;23.498;2023-03-01T08:31:21;100539.75;;;3.75;76.80
73594;BME280;64760;53.404;23.498;2023-03-01T08:33:49;100528.34;;;3.84;76.99
73594;BME280;64760;53.404;23.498;2023-03-01T08:36:31;100536.13;;;3.76;76.70
73594;BME280;64760;53.404;23.498;2023-03-01T08:38:58;100528.91;;;3.78;76.84
73594;BME280;64760;53.404;23.498;2023-03-01T08:41:25;100524.72;;;3.85;76.82
73594;BME280;64760;53.404;23.498;2023-03-01T08:43:52;100521.75;;;3.78;76.49
73594;BME280;64760;53.404;23.498;2023-03-01T08:46:35;100521.53;;;3.91;76.40
73594;BME280;64760;53.404;23.498;2023-03-01T08:49:07;100515.38;;;3.81;76.40
73594;BME280;64760;53.404;23.498;2023-03-01T08:51:35;100525.69;;;3.84;76.68
73594;BME280;64760;53.404;23.498;2023-03-01T08:54:07;100526.78;;;3.42;76.93
73594;BME280;64760;53.404;23.498;2023-03-01T08:56:35;100522.63;;;3.58;77.25
73594;BME280;64760;53.404;23.498;2023-03-01T08:59:02;100518.53;;;3.75;76.82
73594;BME280;64760;53.404;23.498;2023-03-01T09:01:28;100520.22;;;3.76;77.15
73594;BME280;64760;53.404;23.498;2023-03-01T09:03:55;100522.09;;;3.95;76.30
73594;BME280;64760;53.404;23.498;2023-03-01T09:06:21;100528.69;;;4.00;75.95
73594;BME280;64760;53.404;23.498;2023-03-01T09:08:49;100513.38;;;4.13;75.46
73594;BME280;64760;53.404;23.498;2023-03-01T09:11:18;100515.88;;;4.15;75.07
73594;BME280;64760;53.404;23.498;2023-03-01T09:13:46;100525.09;;;4.20;75.39
73594;BME280;64760;53.404;23.498;2023-03-01T09:16:15;100524.28;;;4.30;74.88
73594;BME280;64760;53.404;23.498;2023-03-01T09:18:43;100530.00;;;4.25;74.77
73594;BME280;64760;53.404;23.498;2023-03-01T09:21:15;100531.22;;;4.11;74.91
73594;BME280;64760;53.404;23.498;2023-03-01T09:23:44;100531.25;;;4.21;75.09
73594;BME280;64760;53.404;23.498;2023-03-01T09:26:12;100523.34;;;3.91;76.11
73594;BME280;64760;53.404;23.498;2023-03-01T09:28:39;100538.59;;;4.08;75.55
73594;BME280;64760;53.404;23.498;2023-03-01T09:31:06;100541.72;;;4.13;75.37
73594;BME280;64760;53.404;23.498;2023-03-01T09:33:33;100539.00;;;3.94;75.41
73594;BME280;64760;53.404;23.498;2023-03-01T09:36:04;100545.97;;;3.95;75.63
73594;BME280;64760;53.404;23.498;2023-03-01T09:38:32;100537.66;;;4.09;74.74
73594;BME280;64760;53.404;23.498;2023-03-01T09:41:02;100554.41;;;4.09;75.42
73594;BME280;64760;53.404;23.498;2023-03-01T09:43:48;100550.28;;;3.96;76.02
73594;BME280;64760;53.404;23.498;2023-03-01T09:46:22;100536.19;;;3.95;75.63
73594;BME280;64760;53.404;23.498;2023-03-01T09:48:59;100545.31;;;4.12;74.85
73594;BME280;64760;53.404;23.498;2023-03-01T09:51:34;100550.34;;;4.05;75.22
73594;BME280;64760;53.404;23.498;2023-03-01T09:54:03;100550.94;;;4.28;74.67
73594;BME280;64760;53.404;23.498;2023-03-01T10:04:38;100553.03;;;4.24;74.69
73594;BME280;64760;53.404;23.498;2023-03-01T10:09:38;100552.47;;;4.31;74.72
73594;BME280;64760;53.404;23.498;2023-03-01T10:12:23;100559.72;;;4.09;75.35
73594;BME280;64760;53.404;23.498;2023-03-01T10:15:11;100554.88;;;4.34;74.56
73594;BME280;64760;53.404;23.498;2023-03-01T10:17:45;100553.09;;;4.53;73.20
73594;BME280;64760;53.404;23.498;2023-03-01T10:20:48;100564.38;;;4.36;74.06
73594;BME280;64760;53.404;23.498;2023-03-01T10:23:17;100554.28;;;4.20;74.18
73594;BME280;64760;53.404;23.498;2023-03-01T10:28:29;100543.88;;;4.48;73.40
73594;BME280;64760;53.404;23.498;2023-03-01T10:30:57;100557.69;;;4.42;73.63
73594;BME280;64760;53.404;23.498;2023-03-01T10:33:28;100552.44;;;4.11;74.75
73594;BME280;64760;53.404;23.498;2023-03-01T10:35:56;100545.53;;;4.39;73.89
73594;BME280;64760;53.404;23.498;2023-03-01T10:38:22;100541.22;;;4.67;73.18
73594;BME280;64760;53.404;23.498;2023-03-01T10:40:57;100549.75;;;4.80;72.24
73594;BME280;64760;53.404;23.498;2023-03-01T10:43:25;100530.06;;;4.73;72.40
73594;BME280;64760;53.404;23.498;2023-03-01T10:45:53;100528.47;;;4.32;73.14
73594;BME280;64760;53.404;23.498;2023-03-01T10:48:21;100526.56;;;4.72;72.12
73594;BME280;64760;53.404;23.498;2023-03-01T10:53:26;100540.66;;;4.63;71.52
73594;BME280;64760;53.404;23.498;2023-03-01T10:56:07;100534.94;;;4.49;72.28
73594;BME280;64760;53.404;23.498;2023-03-01T10:58:39;100522.75;;;4.46;72.28
73594;BME280;64760;53.404;23.498;2023-03-01T11:01:25;100527.09;;;4.47;72.71
73594;BME280;64760;53.404;23.498;2023-03-01T11:06:35;100529.84;;;4.26;73.25
73594;BME280;64760;53.404;23.498;2023-03-01T11:09:37;100514.94;;;4.35;73.10
73594;BME280;64760;53.404;23.498;2023-03-01T11:13:32;100518.97;;;4.30;72.97
73594;BME280;64760;53.404;23.498;2023-03-01T11:16:57;100519.22;;;4.26;72.65
73594;BME280;64760;53.404;23.498;2023-03-01T11:19:26;100511.13;;;4.09;73.74
73594;BME280;64760;53.404;23.498;2023-03-01T11:22:07;100504.47;;;4.34;73.16
73594;BME280;64760;53.404;23.498;2023-03-01T11:24:45;100519.00;;;4.49;72.63
73594;BME280;64760;53.404;23.498;2023-03-01T11:27:23;100513.97;;;4.36;73.33
73594;BME280;64760;53.404;23.498;2023-03-01T11:30:18;100511.16;;;4.47;73.36
73594;BME280;64760;53.404;23.498;2023-03-01T11:32:44;100504.88;;;4.67;71.99
73594;BME280;64760;53.404;23.498;2023-03-01T11:35:20;100508.94;;;4.62;71.54
73594;BME280;64760;53.404;23.498;2023-03-01T11:38:04;100500.41;;;4.49;71.67
73594;BME280;64760;53.404;23.498;2023-03-01T11:40:43;100500.25;;;4.21;72.73
73594;BME280;64760;53.404;23.498;2023-03-01T11:54:56;100493.44;;;4.57;72.19
73594;BME280;64760;53.404;23.498;2023-03-01T11:57:43;100506.16;;;4.63;71.95
73594;BME280;64760;53.404;23.498;2023-03-01T12:00:36;100509.06;;;4.51;71.96
73594;BME280;64760;53.404;23.498;2023-03-01T12:03:16;100507.00;;;4.45;72.52
73594;BME280;64760;53.404;23.498;2023-03-01T12:05:53;100499.97;;;4.24;72.98
73594;BME280;64760;53.404;23.498;2023-03-01T12:08:51;100493.00;;;4.33;73.02
73594;BME280;64760;53.404;23.498;2023-03-01T12:38:29;100475.06;;;5.02;69.56
73594;BME280;64760;53.404;23.498;2023-03-01T12:41:19;100468.78;;;5.03;70.04
73594;BME280;64760;53.404;23.498;2023-03-01T12:44:04;100463.75;;;5.00;69.90
73594;BME280;64760;53.404;23.498;2023-03-01T12:47:20;100466.47;;;4.81;70.80
73594;BME280;64760;53.404;23.498;2023-03-01T12:49:55;100455.59;;;4.46;72.30
73594;BME280;64760;53.404;23.498;2023-03-01T12:52:50;100448.84;;;4.51;72.25
73594;BME280;64760;53.404;23.498;2023-03-01T12:55:38;100455.59;;;4.46;72.94
73594;BME280;64760;53.404;23.498;2023-03-01T13:05:06;100448.84;;;4.22;73.68
73594;BME280;64760;53.404;23.498;2023-03-01T13:18:33;100445.84;;;3.87;75.99
73594;BME280;64760;53.404;23.498;2023-03-01T13:23:28;100456.69;;;3.65;77.78
73594;BME280;64760;53.404;23.498;2023-03-01T13:26:14;100440.97;;;3.83;76.70
73594;BME280;64760;53.404;23.498;2023-03-01T13:33:57;100440.44;;;3.89;76.75
73594;BME280;64760;53.404;23.498;2023-03-01T13:41:49;100438.81;;;3.67;78.11
73594;BME280;64760;53.404;23.498;2023-03-01T13:49:45;100439.06;;;3.14;79.22
73594;BME280;64760;53.404;23.498;2023-03-01T13:58:04;100427.59;;;3.44;78.55
73594;BME280;64760;53.404;23.498;2023-03-01T14:00:39;100428.91;;;3.50;78.10
73594;BME280;64760;53.404;23.498;2023-03-01T14:03:10;100428.34;;;3.56;78.08
73594;BME280;64760;53.404;23.498;2023-03-01T14:05:38;100419.94;;;3.51;78.34
73594;BME280;64760;53.404;23.498;2023-03-01T14:08:22;100424.44;;;3.50;77.63
73594;BME280;64760;53.404;23.498;2023-03-01T14:14:05;100424.38;;;3.41;78.57
73594;BME280;64760;53.404;23.498;2023-03-01T14:19:31;100408.72;;;3.28;79.13
73594;BME280;64760;53.404;23.498;2023-03-01T14:24:26;100408.84;;;3.26;79.12
73594;BME280;64760;53.404;23.498;2023-03-01T14:26:53;100406.06;;;3.28;78.92
73594;BME280;64760;53.404;23.498;2023-03-01T14:29:29;100409.16;;;3.03;79.68
73594;BME280;64760;53.404;23.498;2023-03-01T14:32:12;100407.53;;;3.11;79.83
73594;BME280;64760;53.404;23.498;2023-03-01T14:34:46;100395.13;;;3.12;79.46
73594;BME280;64760;53.404;23.498;2023-03-01T14:37:39;100391.28;;;2.95;79.45
73594;BME280;64760;53.404;23.498;2023-03-01T14:40:21;100400.91;;;2.96;80.03
73594;BME280;64760;53.404;23.498;2023-03-01T14:42:47;100389.63;;;2.94;80.61
73594;BME280;64760;53.404;23.498;2023-03-01T14:45:14;100387.34;;;3.10;79.88
73594;BME280;64760;53.404;23.498;2023-03-01T14:47:41;100379.34;;;3.01;79.49
73594;BME280;64760;53.404;23.498;2023-03-01T14:50:30;100384.06;;;2.97;80.16
73594;BME280;64760;53.404;23.498;2023-03-01T14:53:01;100380.69;;;2.95;80.26
73594;BME280;64760;53.404;23.498;2023-03-01T14:55:35;100385.47;;;3.01;79.76
73594;BME280;64760;53.404;23.498;2023-03-01T14:58:05;100379.34;;;2.80;80.56
73594;BME280;64760;53.404;23.498;2023-03-01T15:00:32;100380.97;;;2.92;80.97
73594;BME280;64760;53.404;23.498;2023-03-01T15:03:08;100381.81;;;2.93;81.16
73594;BME280;64760;53.404;23.498;2023-03-01T15:05:40;100380.66;;;2.65;81.28
73594;BME280;64760;53.404;23.498;2023-03-01T15:08:17;100399.03;;;2.87;81.40
73594;BME280;64760;53.404;23.498;2023-03-01T15:11:16;100398.22;;;2.66;81.61
73594;BME280;64760;53.404;23.498;2023-03-01T15:13:42;100381.22;;;2.59;81.96
73594;BME280;64760;53.404;23.498;2023-03-01T15:16:13;100383.97;;;2.36;82.40